Time;durP1;ratioP1;P1;durP2;ratioP2;P2;SDS_P1;SDS_P2;PMS_P1;PMS_P2;Temp;Humidity;BMP_temperature;BMP_pressure;BME280_temperature;BME280_humidity;BME280_pressure;Samples;Min_cycle;Max_cycle;Signal;HPM_P1;HPM_P2
2022/01/20 00:01:47;;;;;;;1.30;0.75;;;;;;;11.94;100.00;101987.69;4954187;28;20461;-85
2022/01/20 00:04:23;;;;;;;1.20;0.63;;;;;;;11.96;100.00;101992.97;4967041;28;20141;-79
2022/01/20 00:20:29;;;;;;;2.33;0.73;;;;;;;11.98;100.00;101998.19;4973337;28;20051;-76
2022/01/20 00:26:32;;;;;;;1.60;0.90;;;;;;;12.05;100.00;102015.78;4934815;28;20044;-79
2022/01/20 00:29:01;;;;;;;0.98;0.68;;;;;;;12.05;100.00;102011.53;4960083;28;20057;-81
2022/01/20 00:31:43;;;;;;;0.98;0.73;;;;;;;12.04;100.00;102006.25;4959802;28;20493;-76
2022/01/20 00:34:18;;;;;;;1.70;0.75;;;;;;;12.03;100.00;102004.50;4960316;28;20492;-77
2022/01/20 00:39:32;;;;;;;1.00;0.52;;;;;;;11.99;100.00;101997.38;4972442;28;20057;-78
2022/01/20 00:42:04;;;;;;;0.93;0.68;;;;;;;11.99;100.00;102005.19;4971778;28;20043;-77
2022/01/20 00:44:33;;;;;;;1.33;0.70;;;;;;;12.00;100.00;102001.75;4972735;28;20122;-76
2022/01/20 00:47:01;;;;;;;0.90;0.60;;;;;;;11.97;100.00;101996.44;4958139;28;20081;-77
2022/01/20 00:49:30;;;;;;;3.25;0.68;;;;;;;12.02;100.00;102003.59;4959234;28;20106;-78
2022/01/20 00:51:59;;;;;;;0.93;0.77;;;;;;;12.04;100.00;101998.47;4974590;28;20086;-80
2022/01/20 00:54:28;;;;;;;1.17;0.90;;;;;;;12.07;100.00;102003.78;4966890;28;20062;-79
2022/01/20 00:56:57;;;;;;;1.20;0.85;;;;;;;12.04;100.00;102001.94;4953962;28;20083;-78
2022/01/20 00:59:29;;;;;;;2.30;0.70;;;;;;;12.05;100.00;102002.81;4971808;28;20113;-77
2022/01/20 01:01:58;;;;;;;;;;;;;;;12.00;100.00;102009.53;4960988;28;20485;-82
2022/01/20 01:04:27;;;;;;;1.42;0.65;;;;;;;11.95;100.00;102005.03;4953712;28;19949;-85
2022/01/20 01:07:20;;;;;;;1.40;0.68;;;;;;;11.95;100.00;102001.53;4958777;28;20147;-81
2022/01/20 01:09:49;;;;;;;1.23;0.60;;;;;;;11.95;100.00;102011.91;4953730;28;20086;-86
2022/01/20 01:12:26;;;;;;;1.13;0.77;;;;;;;11.95;100.00;102007.63;4953361;28;20080;-80
2022/01/20 01:14:57;;;;;;;1.20;0.80;;;;;;;11.95;100.00;102011.91;4967181;28;20516;-80
2022/01/20 01:20:16;;;;;;;2.05;0.73;;;;;;;11.95;100.00;102012.81;4967844;28;20077;-80
2022/01/20 01:22:45;;;;;;;1.25;1.08;;;;;;;11.93;100.00;102013.56;4967955;28;20047;-80
2022/01/20 01:25:14;;;;;;;1.00;0.60;;;;;;;11.92;100.00;102020.47;4973175;28;20133;-81
2022/01/20 01:27:52;;;;;;;1.50;0.65;;;;;;;11.90;100.00;102022.09;4975006;28;20506;-83
2022/01/20 01:31:06;;;;;;;1.35;0.90;;;;;;;11.91;100.00;102023.88;4960217;28;20054;-85
2022/01/20 01:33:37;;;;;;;1.38;0.75;;;;;;;11.93;100.00;102023.94;4973482;28;20090;-84
2022/01/20 01:36:08;;;;;;;1.55;0.93;;;;;;;11.93;100.00;102018.75;4977908;28;20089;-85
2022/01/20 01:38:38;;;;;;;1.50;0.93;;;;;;;11.93;100.00;102022.25;4959516;28;20059;-80
2022/01/20 01:41:10;;;;;;;1.27;0.95;;;;;;;11.93;100.00;102019.66;4952693;28;20051;-79
2022/01/20 01:43:41;;;;;;;1.65;0.73;;;;;;;11.93;100.00;102014.47;4966165;28;20051;-77
2022/01/20 01:46:11;;;;;;;0.65;0.60;;;;;;;11.95;100.00;102024.88;4952985;28;20078;-77
2022/01/20 01:48:40;;;;;;;3.13;0.73;;;;;;;11.97;100.00;102031.03;4953080;28;20657;-80
2022/01/20 01:51:16;;;;;;;1.45;1.08;;;;;;;11.98;100.00;102031.91;4976399;28;20078;-85
2022/01/20 01:53:45;;;;;;;2.15;1.15;;;;;;;11.98;100.00;102037.09;4973772;28;20078;-84
2022/01/20 01:56:13;;;;;;;1.50;1.00;;;;;;;11.98;100.00;102037.09;4953106;28;20051;-85
2022/01/20 01:58:42;;;;;;;2.30;1.00;;;;;;;11.99;100.00;102036.31;4968152;28;20043;-82
2022/01/20 02:01:12;;;;;;;2.33;1.00;;;;;;;11.99;100.00;102036.31;4966692;28;20078;-82
2022/01/20 02:03:45;;;;;;;0.98;0.63;;;;;;;12.00;100.00;102033.75;4964736;28;20074;-82
2022/01/20 02:06:42;;;;;;;1.02;0.80;;;;;;;12.01;100.00;102038.16;4971616;28;20055;-77
2022/01/20 02:09:27;;;;;;;2.47;0.90;;;;;;;12.02;100.00;102031.25;4967135;28;20078;-76
2022/01/20 02:20:17;;;;;;;1.15;0.70;;;;;;;12.01;100.00;102038.16;4962159;28;20499;-76
2022/01/20 02:22:46;;;;;;;1.63;1.05;;;;;;;12.00;100.00;102040.66;4975771;28;20054;-76
2022/01/20 02:25:21;;;;;;;1.38;0.95;;;;;;;12.00;100.00;102038.94;4959313;28;20121;-75
2022/01/20 02:27:50;;;;;;;1.25;0.95;;;;;;;12.03;100.00;102040.81;4956301;28;20055;-77
2022/01/20 02:30:20;;;;;;;2.65;1.00;;;;;;;12.04;100.00;102032.19;4957843;28;20122;-75
2022/01/20 02:32:54;;;;;;;2.40;1.00;;;;;;;12.04;100.00;102027.88;4975039;28;20272;-75
2022/01/20 02:35:25;;;;;;;1.48;0.95;;;;;;;12.05;100.00;102028.75;4961177;28;20127;-78
2022/01/20 02:37:58;;;;;;;1.70;1.00;;;;;;;12.06;100.00;102030.56;4956024;28;20051;-78
2022/01/20 02:44:48;;;;;;;0.90;0.80;;;;;;;12.08;100.00;102026.34;4969702;28;20077;-77
2022/01/20 02:46:07;;;;;;;2.05;0.80;;;;;;;12.13;100.00;102027.41;4975225;28;20081;-78
2022/01/20 02:48:36;;;;;;;2.78;1.05;;;;;;;12.14;100.00;102030.06;4964950;28;20481;-76
2022/01/20 02:51:12;;;;;;;1.10;0.80;;;;;;;12.13;100.00;102017.91;4957620;28;20063;-76
2022/01/20 02:53:41;;;;;;;1.48;0.95;;;;;;;12.16;100.00;102027.53;4955663;28;20453;-76
2022/01/20 02:56:09;;;;;;;1.08;0.80;;;;;;;12.18;100.00;102036.28;4956433;28;20091;-77
2022/01/20 02:58:38;;;;;;;1.13;0.82;;;;;;;12.20;100.00;102034.63;4969523;28;20102;-77
2022/01/20 03:01:06;;;;;;;1.73;1.00;;;;;;;12.21;100.00;102030.31;4974501;28;20078;-77
2022/01/20 03:03:35;;;;;;;1.90;0.95;;;;;;;12.23;100.00;102042.56;4974410;28;20411;-77
2022/01/20 03:06:04;;;;;;;1.58;1.10;;;;;;;12.23;100.00;102041.66;4975456;28;20051;-77
2022/01/20 03:08:35;;;;;;;1.48;1.00;;;;;;;12.23;100.00;102034.78;4981334;28;20050;-77
2022/01/20 03:11:04;;;;;;;1.30;0.85;;;;;;;12.22;100.00;102038.19;4973988;28;20055;-77
2022/01/20 03:13:32;;;;;;;1.33;0.80;;;;;;;12.25;100.00;102042.63;4968312;28;20269;-77
2022/01/20 03:16:01;;;;;;;1.75;1.08;;;;;;;12.26;100.00;102040.09;4969200;28;20101;-80
2022/01/20 03:18:29;;;;;;;1.60;1.10;;;;;;;12.26;100.00;102029.72;4969124;28;20075;-85
2022/01/20 03:20:57;;;;;;;2.53;1.00;;;;;;;12.27;100.00;102031.47;4955502;28;20048;-80
2022/01/20 03:23:26;;;;;;;1.98;1.10;;;;;;;12.28;100.00;102032.38;4959161;28;20055;-84
2022/01/20 03:25:56;;;;;;;1.95;1.20;;;;;;;12.27;100.00;102031.47;4971264;28;20111;-87
2022/01/20 03:28:25;;;;;;;1.90;1.13;;;;;;;12.29;100.00;102040.22;4994095;28;20055;-84
2022/01/20 03:30:53;;;;;;;3.10;1.20;;;;;;;12.29;100.00;102040.22;4968793;28;20186;-84
2022/01/20 03:33:22;;;;;;;2.28;0.95;;;;;;;12.30;100.00;102042.00;4971645;28;20055;-87
2022/01/20 03:35:52;;;;;;;1.85;1.00;;;;;;;12.32;100.00;102037.78;4969028;28;20082;-86
2022/01/20 03:38:20;;;;;;;1.92;1.05;;;;;;;12.30;100.00;102042.00;4955725;28;20119;-85
2022/01/20 03:40:50;;;;;;;1.73;1.00;;;;;;;12.29;100.00;102042.81;4960287;28;20556;-86
2022/01/20 03:43:20;;;;;;;2.13;1.17;;;;;;;12.30;100.00;102042.00;4970872;28;20114;-88
2022/01/20 03:45:54;;;;;;;2.35;1.30;;;;;;;12.26;100.00;102036.63;4979027;28;20090;-84
2022/01/20 03:48:25;;;;;;;2.55;1.20;;;;;;;12.30;100.00;102038.50;4957001;28;20051;-82
2022/01/20 03:51:03;;;;;;;2.72;1.20;;;;;;;12.31;100.00;102048.09;4956453;28;20082;-81
2022/01/20 03:53:35;;;;;;;1.65;1.10;;;;;;;12.29;100.00;102039.34;4965946;28;20130;-81
2022/01/20 03:56:04;;;;;;;1.73;1.20;;;;;;;12.28;100.00;102046.25;4973414;28;20485;-81
2022/01/20 03:58:35;;;;;;;1.80;1.00;;;;;;;12.26;100.00;102047.88;4974090;28;20051;-83
2022/01/20 04:01:03;;;;;;;2.13;1.15;;;;;;;12.25;100.00;102048.69;4969964;28;20055;-84
2022/01/20 04:03:32;;;;;;;3.38;1.10;;;;;;;12.25;100.00;102048.69;4966050;28;20074;-85
2022/01/20 04:06:00;;;;;;;1.88;1.15;;;;;;;12.28;100.00;102048.84;4974331;28;20504;-81
2022/01/20 04:08:31;;;;;;;1.90;1.38;;;;;;;12.29;100.00;102055.78;4965115;28;20102;-81
2022/01/20 04:10:59;;;;;;;3.42;1.30;;;;;;;12.28;100.00;102054.03;4970306;28;20055;-81
2022/01/20 04:13:31;;;;;;;2.35;1.20;;;;;;;12.31;100.00;102055.88;4961264;28;20078;-83
2022/01/20 04:16:10;;;;;;;1.67;1.20;;;;;;;12.33;100.00;102062.91;4972984;28;20059;-80
2022/01/20 04:18:39;;;;;;;3.35;1.30;;;;;;;12.33;100.00;102064.59;4954174;28;20043;-81
2022/01/20 04:21:08;;;;;;;2.35;1.10;;;;;;;12.33;100.00;102054.22;4968182;28;20051;-79
2022/01/20 04:23:36;;;;;;;2.53;1.67;;;;;;;12.34;100.00;102062.06;4960285;28;20086;-79
2022/01/20 04:26:05;;;;;;;2.33;1.25;;;;;;;12.34;100.00;102056.88;4961013;28;20047;-82
2022/01/20 04:28:33;;;;;;;2.75;1.60;;;;;;;12.35;100.00;102060.38;4958790;28;20046;-81
2022/01/20 04:31:04;;;;;;;3.03;1.42;;;;;;;12.35;100.00;102066.44;4962801;28;20074;-80
2022/01/20 04:33:32;;;;;;;1.92;1.35;;;;;;;12.38;100.00;102065.69;4970464;28;20078;-80
2022/01/20 04:36:00;;;;;;;1.85;1.10;;;;;;;12.29;100.00;102049.72;4973633;28;20078;-84
2022/01/20 04:38:29;;;;;;;3.47;1.20;;;;;;;12.35;100.00;102061.25;4957913;28;20055;-82
2022/01/20 04:40:57;;;;;;;2.30;1.23;;;;;;;12.34;100.00;102063.78;4953953;28;20055;-80
2022/01/20 04:43:27;;;;;;;1.90;1.15;;;;;;;12.33;100.00;102062.91;4953446;28;20485;-81
2022/01/20 04:46:02;;;;;;;1.52;1.15;;;;;;;12.34;100.00;102063.78;4953996;28;20147;-83
2022/01/20 04:48:46;;;;;;;2.15;1.20;;;;;;;12.34;100.00;102068.97;4953863;28;20122;-78
2022/01/20 04:57:16;;;;;;;1.90;1.15;;;;;;;12.33;100.00;102075.88;4955053;28;20047;-82
2022/01/20 04:59:46;;;;;;;1.52;1.10;;;;;;;12.33;100.00;102075.88;4961727;28;20046;-79
2022/01/20 05:02:14;;;;;;;1.30;0.90;;;;;;;12.31;100.00;102067.13;4972469;28;20078;-79
2022/01/20 05:04:44;;;;;;;3.00;1.30;;;;;;;12.33;100.00;102072.41;4966410;28;20044;-78
2022/01/20 05:07:19;;;;;;;2.60;1.17;;;;;;;12.34;100.00;102069.84;4961173;28;20078;-80
2022/01/20 05:09:48;;;;;;;1.35;0.90;;;;;;;12.35;100.00;102074.22;4954275;28;20054;-80
2022/01/20 05:12:22;;;;;;;1.85;1.13;;;;;;;12.35;100.00;102071.63;4952919;28;20131;-81
2022/01/20 05:14:51;;;;;;;1.58;1.08;;;;;;;12.35;100.00;102071.63;4953789;28;20051;-78
2022/01/20 05:17:21;;;;;;;1.52;1.15;;;;;;;12.36;100.00;102073.41;4953243;28;20087;-79
2022/01/20 05:19:51;;;;;;;2.67;1.45;;;;;;;12.39;100.00;102072.63;4953544;28;20134;-79
2022/01/20 05:22:22;;;;;;;1.33;0.98;;;;;;;12.40;100.00;102083.94;4961826;28;20046;-79
2022/01/20 05:24:51;;;;;;;1.30;0.80;;;;;;;12.42;100.00;102082.28;4970277;28;20054;-81
2022/01/20 05:27:19;;;;;;;2.17;1.10;;;;;;;12.43;100.00;102073.66;4953078;28;20055;-80
2022/01/20 05:29:48;;;;;;;1.30;1.10;;;;;;;12.41;100.00;102076.19;4967012;28;20051;-80
2022/01/20 05:32:16;;;;;;;2.53;0.98;;;;;;;12.41;100.00;102070.13;4971792;28;20051;-80
2022/01/20 05:34:45;;;;;;;1.50;1.08;;;;;;;12.39;100.00;102071.75;4962538;28;20090;-79
2022/01/20 05:37:15;;;;;;;1.85;1.17;;;;;;;12.38;100.00;102081.25;4967808;28;20051;-78
2022/01/20 05:39:44;;;;;;;2.75;0.85;;;;;;;12.35;100.00;102071.63;4953297;28;20110;-81
2022/01/20 05:42:12;;;;;;;1.02;0.90;;;;;;;12.36;100.00;102073.41;4954532;28;20108;-81
2022/01/20 05:44:42;;;;;;;1.58;1.00;;;;;;;12.36;100.00;102076.00;4964937;28;20089;-82
2022/01/20 05:47:12;;;;;;;2.35;1.00;;;;;;;12.38;100.00;102083.84;4966352;28;20047;-81
2022/01/20 05:49:40;;;;;;;3.42;1.42;;;;;;;12.38;100.00;102078.66;4953607;28;20047;-82
2022/01/20 05:52:09;;;;;;;2.17;1.00;;;;;;;12.38;100.00;102078.66;4966872;28;20141;-81
2022/01/20 05:54:39;;;;;;;1.40;0.90;;;;;;;12.38;100.00;102085.56;4973017;28;20088;-83
2022/01/20 05:57:10;;;;;;;2.28;1.08;;;;;;;12.36;100.00;102088.09;4963814;28;20058;-80
2022/01/20 05:59:39;;;;;;;1.48;1.13;;;;;;;12.34;100.00;102085.41;4965319;28;20051;-82
2022/01/20 06:02:12;;;;;;;1.40;1.00;;;;;;;12.34;100.00;102077.63;4952868;28;20114;-82
2022/01/20 06:04:41;;;;;;;1.65;0.90;;;;;;;12.35;100.00;102079.44;4960693;28;20551;-81
2022/01/20 06:07:10;;;;;;;2.25;0.85;;;;;;;12.35;100.00;102087.22;4971903;28;20117;-82
2022/01/20 06:09:40;;;;;;;2.08;1.20;;;;;;;12.35;100.00;102089.81;4967982;28;20051;-82
2022/01/20 06:12:09;;;;;;;1.80;1.10;;;;;;;12.36;100.00;102088.09;4964277;28;20074;-81
2022/01/20 06:14:38;;;;;;;2.08;0.98;;;;;;;12.35;100.00;102091.53;4968799;28;20079;-84
2022/01/20 06:17:06;;;;;;;1.50;0.93;;;;;;;12.35;100.00;102087.22;4953785;28;20662;-82
2022/01/20 06:19:35;;;;;;;3.75;1.40;;;;;;;12.34;100.00;102082.81;4953324;28;20507;-81
2022/01/20 06:22:03;;;;;;;1.25;1.00;;;;;;;12.31;100.00;102080.09;4960545;28;20492;-81
2022/01/20 06:24:32;;;;;;;2.67;0.98;;;;;;;12.30;100.00;102086.13;4972909;28;20089;-83
2022/01/20 06:27:02;;;;;;;2.13;1.10;;;;;;;12.29;100.00;102079.16;4958326;28;20504;-80
2022/01/20 06:29:30;;;;;;;1.52;1.33;;;;;;;12.29;100.00;102080.88;4972020;28;20340;-82
2022/01/20 06:32:07;;;;;;;3.00;0.93;;;;;;;12.28;100.00;102082.56;4958386;28;20054;-77
2022/01/20 06:34:35;;;;;;;2.60;1.02;;;;;;;12.28;100.00;102081.69;4971972;28;20046;-77
2022/01/20 06:37:04;;;;;;;1.98;1.10;;;;;;;12.27;100.00;102078.19;4969102;28;20075;-77
2022/01/20 06:39:33;;;;;;;1.67;1.00;;;;;;;12.28;100.00;102081.69;4961543;28;20477;-77
2022/01/20 06:42:03;;;;;;;1.95;1.05;;;;;;;12.29;100.00;102086.94;4971805;28;20453;-77
2022/01/20 06:44:31;;;;;;;1.77;0.90;;;;;;;12.29;100.00;102086.06;4964594;28;20071;-77
2022/01/20 06:47:00;;;;;;;1.83;1.08;;;;;;;12.27;100.00;102093.75;4966070;28;20062;-78
2022/01/20 06:49:28;;;;;;;6.05;1.00;;;;;;;12.27;100.00;102088.56;4953169;28;20047;-77
2022/01/20 06:51:57;;;;;;;1.60;1.10;;;;;;;12.28;100.00;102100.75;4966076;28;20102;-77
2022/01/20 06:54:25;;;;;;;1.42;1.13;;;;;;;12.27;100.00;102096.34;4969226;28;20174;-77
2022/01/20 06:56:54;;;;;;;1.27;0.98;;;;;;;12.27;100.00;102101.53;4964503;28;20051;-78
2022/01/20 06:59:24;;;;;;;1.52;1.02;;;;;;;12.27;100.00;102103.25;4972225;28;20267;-77
2022/01/20 07:01:52;;;;;;;2.15;1.10;;;;;;;12.25;100.00;102095.41;4968749;28;20523;-76
2022/01/20 07:04:21;;;;;;;0.95;0.80;;;;;;;12.25;100.00;102099.72;4973291;28;20053;-77
2022/01/20 07:06:50;;;;;;;1.33;0.90;;;;;;;12.25;100.00;102104.91;4974858;28;20051;-77
2022/01/20 07:09:19;;;;;;;1.45;0.90;;;;;;;12.25;100.00;102095.41;4974604;28;20043;-77
2022/01/20 07:11:47;;;;;;;1.58;1.02;;;;;;;12.26;100.00;102102.38;4974140;28;20078;-76
2022/01/20 07:14:16;;;;;;;2.35;1.00;;;;;;;12.26;100.00;102097.19;4964162;28;20047;-77
2022/01/20 07:16:47;;;;;;;1.13;0.88;;;;;;;12.25;100.00;102095.41;4969286;28;20168;-76
2022/01/20 07:19:16;;;;;;;1.93;1.10;;;;;;;12.27;100.00;102085.09;4956341;28;20103;-77
2022/01/20 07:21:45;;;;;;;2.08;0.90;;;;;;;12.27;100.00;102085.97;4957412;28;20285;-76
2022/01/20 07:24:14;;;;;;;1.35;0.90;;;;;;;12.26;100.00;102086.81;4966752;28;20055;-76
2022/01/20 07:26:42;;;;;;;2.00;1.10;;;;;;;12.23;100.00;102089.28;4971289;28;20130;-77
2022/01/20 07:29:11;;;;;;;1.92;0.80;;;;;;;12.24;100.00;102093.63;4975721;28;20047;-78
2022/01/20 07:31:39;;;;;;;1.10;0.70;;;;;;;12.24;100.00;102096.22;4963080;28;20051;-77
2022/01/20 07:34:09;;;;;;;0.95;0.85;;;;;;;12.24;100.00;102100.53;4974391;28;20051;-77
2022/01/20 07:36:38;;;;;;;1.05;0.85;;;;;;;12.22;100.00;102105.66;4975032;28;20119;-77
2022/01/20 07:39:06;;;;;;;1.17;0.75;;;;;;;12.21;100.00;102095.19;4957905;28;20047;-78
2022/01/20 07:41:35;;;;;;;0.80;0.70;;;;;;;12.21;100.00;102097.78;4955858;28;20082;-77
2022/01/20 07:44:04;;;;;;;1.17;0.88;;;;;;;12.21;100.00;102098.69;4969569;28;20050;-76
2022/01/20 07:46:32;;;;;;;1.17;0.82;;;;;;;12.24;100.00;102100.53;4962930;28;20093;-76
2022/01/20 07:49:01;;;;;;;0.90;0.80;;;;;;;12.24;100.00;102097.94;4961067;28;20086;-77
2022/01/20 07:51:31;;;;;;;1.08;0.80;;;;;;;12.24;100.00;102101.44;4963624;28;20106;-77
2022/01/20 07:53:59;;;;;;;4.28;0.95;;;;;;;12.25;100.00;102098.00;4974941;28;20085;-78
2022/01/20 07:56:28;;;;;;;1.00;0.70;;;;;;;12.27;100.00;102092.88;4963518;28;20082;-78
2022/01/20 07:58:56;;;;;;;1.20;0.95;;;;;;;12.26;100.00;102093.72;4975390;28;20054;-76
2022/01/20 08:01:26;;;;;;;3.00;0.77;;;;;;;12.26;100.00;102094.59;4974871;28;20109;-77
2022/01/20 08:03:55;;;;;;;1.90;0.88;;;;;;;12.28;100.00;102098.16;4974205;28;20055;-77
2022/01/20 08:06:24;;;;;;;0.70;0.70;;;;;;;12.29;100.00;102092.13;4967624;28;20110;-78
2022/01/20 08:08:54;;;;;;;1.08;0.70;;;;;;;12.30;100.00;102093.91;4972375;28;20050;-79
2022/01/20 08:11:23;;;;;;;1.65;0.90;;;;;;;12.27;100.00;102098.94;4972163;28;20047;-78
2022/01/20 08:13:52;;;;;;;2.35;0.75;;;;;;;12.28;100.00;102090.38;4973487;28;20134;-78
2022/01/20 08:16:21;;;;;;;1.10;0.73;;;;;;;12.28;100.00;102100.75;4960056;28;20059;-79
2022/01/20 08:18:49;;;;;;;1.52;0.90;;;;;;;12.30;100.00;102099.09;4965709;28;20488;-78
2022/01/20 08:21:18;;;;;;;1.38;0.90;;;;;;;12.31;100.00;102102.59;4954569;28;20090;-78
2022/01/20 08:23:46;;;;;;;1.20;0.70;;;;;;;12.30;100.00;102093.91;4967304;28;20083;-77
2022/01/20 08:26:16;;;;;;;1.73;0.93;;;;;;;12.30;100.00;102095.59;4966425;28;20051;-78
2022/01/20 08:28:45;;;;;;;1.92;0.90;;;;;;;12.25;100.00;102095.41;4968257;28;20086;-77
2022/01/20 08:31:14;;;;;;;1.45;0.90;;;;;;;12.20;100.00;102077.88;4964715;28;20050;-79
2022/01/20 08:33:43;;;;;;;2.38;0.93;;;;;;;12.26;100.00;102097.19;4958842;28;20050;-78
2022/01/20 08:36:11;;;;;;;1.98;0.70;;;;;;;12.25;100.00;102095.41;4963988;28;20055;-79
2022/01/20 08:38:40;;;;;;;1.17;0.98;;;;;;;12.24;100.00;102096.22;4955306;28;20094;-78
2022/01/20 08:41:08;;;;;;;3.13;1.00;;;;;;;12.24;100.00;102098.81;4965299;28;20047;-78
2022/01/20 08:43:40;;;;;;;1.10;0.80;;;;;;;12.22;100.00;102095.28;4967606;28;20130;-77
2022/01/20 08:46:09;;;;;;;1.10;0.80;;;;;;;12.22;100.00;102100.47;4972693;28;20062;-77
2022/01/20 08:48:38;;;;;;;2.25;0.82;;;;;;;12.19;100.00;102095.16;4973200;28;20055;-77
2022/01/20 08:51:07;;;;;;;1.27;0.80;;;;;;;12.19;100.00;102099.47;4974832;28;20726;-78
2022/01/20 08:53:36;;;;;;;1.65;0.93;;;;;;;12.18;100.00;102102.84;4976343;28;20098;-78
2022/01/20 08:56:05;;;;;;;3.47;1.05;;;;;;;12.17;100.00;102098.50;4970663;28;20058;-79
2022/01/20 08:58:34;;;;;;;1.38;1.25;;;;;;;12.17;100.00;102112.34;4967151;28;20051;-80
2022/01/20 09:01:04;;;;;;;2.47;1.10;;;;;;;12.15;100.00;102101.03;4959390;28;20485;-80
2022/01/20 09:03:33;;;;;;;1.83;1.02;;;;;;;12.14;100.00;102107.91;4972288;28;20047;-79
2022/01/20 09:06:06;;;;;;;1.75;1.13;;;;;;;12.14;100.00;102094.06;4958723;28;20564;-78
2022/01/20 09:08:34;;;;;;;1.98;0.90;;;;;;;12.10;100.00;102095.63;4972685;28;20115;-79
2022/01/20 09:11:06;;;;;;;2.50;1.20;;;;;;;12.12;100.00;102106.09;4956814;28;20123;-78
2022/01/20 09:16:22;;;;;;;1.52;1.10;;;;;;;12.12;100.00;102103.47;4972989;28;20191;-77
2022/01/20 09:18:50;;;;;;;1.48;1.10;;;;;;;12.12;100.00;102108.66;4962658;28;20048;-77
2022/01/20 09:21:22;;;;;;;2.80;1.15;;;;;;;12.13;100.00;102097.47;4957079;28;20048;-79
2022/01/20 09:23:51;;;;;;;2.50;1.13;;;;;;;12.11;100.00;102096.50;4965099;28;20121;-80
2022/01/20 09:26:19;;;;;;;2.38;1.02;;;;;;;12.10;100.00;102105.13;4953321;28;20051;-78
2022/01/20 09:28:48;;;;;;;2.08;1.15;;;;;;;12.12;100.00;102103.47;4966520;28;20177;-78
2022/01/20 09:31:17;;;;;;;1.08;0.98;;;;;;;12.13;100.00;102097.47;4953080;28;20079;-82
2022/01/20 09:33:47;;;;;;;1.77;1.02;;;;;;;12.13;100.00;102100.06;4966783;28;20199;-78
2022/01/20 09:36:15;;;;;;;3.20;1.10;;;;;;;12.16;100.00;102105.38;4963416;28;20568;-78
2022/01/20 09:38:44;;;;;;;1.58;1.00;;;;;;;12.18;100.00;102106.34;4958344;28;20141;-77
2022/01/20 09:41:13;;;;;;;2.47;1.20;;;;;;;12.17;100.00;102099.38;4972290;28;20501;-78
2022/01/20 09:43:41;;;;;;;2.05;1.25;;;;;;;12.17;100.00;102096.78;4971472;28;20099;-77
2022/01/20 09:46:10;;;;;;;2.25;1.08;;;;;;;12.17;100.00;102096.78;4953278;28;20426;-77
2022/01/20 09:48:38;;;;;;;2.15;1.08;;;;;;;12.17;100.00;102099.38;4965446;28;20106;-79
2022/01/20 09:51:13;;;;;;;2.03;1.20;;;;;;;12.18;100.00;102098.53;4960404;28;20080;-77
2022/01/20 09:53:41;;;;;;;1.42;0.98;;;;;;;12.15;100.00;102091.53;4963957;28;20080;-79
2022/01/20 09:56:14;;;;;;;2.28;0.80;;;;;;;12.17;100.00;102091.59;4958216;28;20082;-79
2022/01/20 09:58:43;;;;;;;1.77;1.13;;;;;;;12.19;100.00;102097.75;4971723;28;20507;-78
2022/01/20 10:01:12;;;;;;;1.50;1.05;;;;;;;12.20;100.00;102096.91;4953217;28;20051;-77
2022/01/20 10:03:47;;;;;;;3.17;1.17;;;;;;;12.22;100.00;102095.28;4964241;28;20137;-77
2022/01/20 10:06:19;;;;;;;2.85;1.17;;;;;;;12.23;100.00;102096.16;4971731;28;20102;-78
2022/01/20 10:08:58;;;;;;;2.08;0.90;;;;;;;12.22;100.00;102092.69;4972472;28;20325;-78
2022/01/20 10:11:26;;;;;;;3.35;1.05;;;;;;;12.23;100.00;102086.69;4957561;28;20555;-78
2022/01/20 10:13:59;;;;;;;1.90;0.90;;;;;;;12.22;100.00;102084.00;4971841;28;20086;-77
2022/01/20 10:16:27;;;;;;;1.50;1.00;;;;;;;12.21;100.00;102088.31;4967769;28;20047;-76
2022/01/20 10:19:00;;;;;;;1.70;1.10;;;;;;;12.23;100.00;102090.97;4962756;28;20050;-78
2022/01/20 10:21:34;;;;;;;0.85;0.80;;;;;;;12.22;100.00;102100.47;4971112;28;20126;-76
2022/01/20 10:24:08;;;;;;;1.30;1.00;;;;;;;12.22;100.00;102105.66;4962194;28;20055;-76
2022/01/20 10:26:37;;;;;;;1.40;1.00;;;;;;;12.23;100.00;102106.53;4955063;28;20784;-78
2022/01/20 10:29:07;;;;;;;2.58;0.88;;;;;;;12.24;100.00;102103.13;4971477;28;20046;-76
2022/01/20 10:31:38;;;;;;;1.40;0.98;;;;;;;12.23;100.00;102106.53;4974252;28;20748;-78
2022/01/20 10:34:08;;;;;;;1.65;1.10;;;;;;;12.24;100.00;102104.00;4967339;28;20102;-77
2022/01/20 10:36:51;;;;;;;1.77;1.33;;;;;;;12.24;100.00;102108.31;4956376;28;20054;-78
2022/01/20 10:39:19;;;;;;;1.23;1.10;;;;;;;12.26;100.00;102097.19;4956432;28;20054;-77
2022/01/20 10:41:48;;;;;;;1.55;1.15;;;;;;;12.27;100.00;102103.25;4969616;28;20054;-78
2022/01/20 10:44:16;;;;;;;1.30;0.90;;;;;;;12.26;100.00;102099.78;4962097;28;20051;-77
2022/01/20 10:46:53;;;;;;;3.03;1.25;;;;;;;12.29;100.00;102105.09;4977620;28;20444;-78
2022/01/20 10:49:29;;;;;;;1.90;1.10;;;;;;;12.30;100.00;102104.31;4970373;28;20099;-79
2022/01/20 10:52:04;;;;;;;1.92;1.40;;;;;;;12.34;100.00;102100.09;4958490;28;20051;-78
2022/01/20 10:54:41;;;;;;;2.03;0.90;;;;;;;12.34;100.00;102101.00;4962162;28;20106;-78
2022/01/20 10:57:11;;;;;;;2.80;1.02;;;;;;;12.32;100.00;102097.47;4974879;28;20114;-79
2022/01/20 10:59:50;;;;;;;1.60;1.30;;;;;;;12.34;100.00;102098.41;4974856;28;20053;-77
2022/01/20 11:02:20;;;;;;;1.98;1.05;;;;;;;12.35;100.00;102097.59;4974680;28;20077;-78
2022/01/20 11:04:50;;;;;;;2.05;1.10;;;;;;;12.33;100.00;102094.03;4975046;28;20043;-77
2022/01/20 11:07:20;;;;;;;2.08;0.90;;;;;;;12.33;100.00;102093.16;4974371;28;20047;-78
2022/01/20 11:09:55;;;;;;;1.13;1.00;;;;;;;12.31;100.00;102093.09;4968383;28;20071;-77
2022/01/20 11:12:23;;;;;;;1.52;1.00;;;;;;;12.32;100.00;102087.09;4955410;28;20066;-77
2022/01/20 11:14:53;;;;;;;1.77;0.90;;;;;;;12.32;100.00;102086.19;4955685;28;20050;-79
2022/01/20 11:17:23;;;;;;;1.15;0.98;;;;;;;12.30;100.00;102083.53;4955799;28;20055;-79
2022/01/20 11:19:52;;;;;;;1.92;0.90;;;;;;;12.28;100.00;102074.78;4960137;28;20097;-79
2022/01/20 11:22:22;;;;;;;1.13;0.90;;;;;;;12.29;100.00;102068.75;4975155;28;20047;-80
2022/01/20 11:25:01;;;;;;;2.60;0.90;;;;;;;12.28;100.00;102061.81;4961493;28;20051;-79
2022/01/20 11:27:40;;;;;;;2.25;1.17;;;;;;;12.27;100.00;102073.00;4974536;28;20508;-79
2022/01/20 11:30:18;;;;;;;1.92;1.02;;;;;;;12.30;100.00;102070.56;4958012;28;20106;-79
2022/01/20 11:33:00;;;;;;;2.65;1.00;;;;;;;12.31;100.00;102068.84;4965853;28;20043;-79
2022/01/20 11:35:38;;;;;;;1.67;0.88;;;;;;;12.34;100.00;102068.97;4969854;28;20051;-80
2022/01/20 11:38:09;;;;;;;2.85;1.00;;;;;;;12.36;100.00;102072.53;4955447;28;20099;-81
2022/01/20 11:40:51;;;;;;;2.05;0.90;;;;;;;12.39;100.00;102083.03;4969820;28;20119;-80
2022/01/20 11:43:19;;;;;;;1.80;1.05;;;;;;;12.40;100.00;102081.34;4968318;28;20073;-80
2022/01/20 11:45:51;;;;;;;0.75;0.60;;;;;;;12.40;100.00;102078.75;4976615;28;20387;-81
2022/01/20 11:48:22;;;;;;;1.00;0.90;;;;;;;12.42;100.00;102077.09;4964149;28;20055;-80
2022/01/20 11:51:04;;;;;;;1.15;0.80;;;;;;;12.44;100.00;102076.34;4971424;28;20076;-79
2022/01/20 11:53:40;;;;;;;1.13;0.90;;;;;;;12.43;100.00;102079.75;4973590;28;20051;-78
2022/01/20 11:56:11;;;;;;;1.55;1.13;;;;;;;12.41;100.00;102075.31;4970024;28;20055;-79
2022/01/20 11:58:40;;;;;;;1.00;0.88;;;;;;;12.41;100.00;102080.50;4968909;28;20100;-79
2022/01/20 12:01:10;;;;;;;1.70;1.00;;;;;;;12.39;100.00;102075.25;4968698;28;20048;-79
2022/01/20 12:03:50;;;;;;;2.38;0.90;;;;;;;12.40;100.00;102079.63;4965672;28;20090;-80
2022/01/20 12:06:23;;;;;;;2.25;0.88;;;;;;;12.41;100.00;102075.31;4968080;28;20492;-80
2022/01/20 12:08:58;;;;;;;2.47;0.80;;;;;;;12.43;100.00;102078.88;4970549;28;20077;-80
2022/01/20 12:11:37;;;;;;;1.65;1.00;;;;;;;12.38;100.00;102070.00;4974068;28;20055;-80
2022/01/20 12:14:06;;;;;;;0.90;0.70;;;;;;;12.45;100.00;102083.28;4973755;28;20051;-79
2022/01/20 12:16:36;;;;;;;1.08;0.70;;;;;;;12.34;100.00;102068.97;4967488;28;20082;-78